Weather at Cuneo International Airport

Public forecast

Using degrees Celsius for public forecast. Weather courtesy of forecast.io.

Current aviation weather report (METAR) for Cuneo International Airport

Retrieved 2021/04/20 23:20 UTC (13 minutes ago):

LIMZ 202320Z AUTO VRB02KT 9999 OVC100 09/07 Q1015

Aviation forecast (TAF) for Cuneo International Airport

Retrieved 2021/04/20 18:21 UTC (5 hours ago):

TAF LIMZ 201700Z 2018/2118 VRB05KT 9999 FEW040 TEMPO 2106/2115 RA BKN014 BECMG 2112/2114 13010KT